Terminal Aerodrome Forecast
Issued by NWS Charleston, WV

Current Version | Previous Version | Text Only | Print | Product List | Glossary Off
Versions: 1 2 3 4 5 6 7 8 9 10 11 12 13 14 15 16 17 18 19 20 21 22 23

000
FTUS41 KRLX 032300
TAFHTS
TAF
KHTS 032327Z 0400/0424 20009KT P6SM BKN025 OVC035
      TEMPO 0400/0404 22010G20KT
     FM040400 20009KT 6SM -RA SCT009 OVC012
     FM040600 21009KT 2SM -RA BR OVC008
     FM041200 VRB03KT 1SM -RA BR OVC003
     FM041400 33004KT 3/4SM -RA BR OVC003=

USA.gov is the U.S. government's official web portal to all federal, state and local government web resources and services.